sensor_id;sensor_type;location;lat;lon;timestamp;P1;durP1;ratioP1;P2;durP2;ratioP2
76152;SDS011;64897;50.816;4.422;2023-05-07T00:01:27;6.93;;;4.70;;
76152;SDS011;64897;50.816;4.422;2023-05-07T00:04:15;15.40;;;4.75;;
76152;SDS011;64897;50.816;4.422;2023-05-07T00:07:02;9.50;;;5.00;;
76152;SDS011;64897;50.816;4.422;2023-05-07T00:09:50;10.30;;;4.70;;
76152;SDS011;64897;50.816;4.422;2023-05-07T00:12:36;13.82;;;4.60;;
76152;SDS011;64897;50.816;4.422;2023-05-07T00:15:23;5.03;;;3.88;;
76152;SDS011;64897;50.816;4.422;2023-05-07T00:18:10;8.13;;;4.40;;
76152;SDS011;64897;50.816;4.422;2023-05-07T00:20:58;9.52;;;4.80;;
76152;SDS011;64897;50.816;4.422;2023-05-07T00:23:45;8.05;;;4.78;;
76152;SDS011;64897;50.816;4.422;2023-05-07T00:26:32;8.20;;;4.72;;
76152;SDS011;64897;50.816;4.422;2023-05-07T00:29:19;8.85;;;4.47;;
76152;SDS011;64897;50.816;4.422;2023-05-07T00:32:05;11.55;;;4.78;;
76152;SDS011;64897;50.816;4.422;2023-05-07T00:34:53;9.32;;;4.80;;
76152;SDS011;64897;50.816;4.422;2023-05-07T00:37:41;7.20;;;4.53;;
76152;SDS011;64897;50.816;4.422;2023-05-07T00:40:28;9.32;;;4.53;;
76152;SDS011;64897;50.816;4.422;2023-05-07T00:43:15;10.60;;;4.82;;
76152;SDS011;64897;50.816;4.422;2023-05-07T00:46:02;12.23;;;4.45;;
76152;SDS011;64897;50.816;4.422;2023-05-07T00:48:49;10.25;;;5.28;;
76152;SDS011;64897;50.816;4.422;2023-05-07T00:51:37;11.02;;;4.63;;
76152;SDS011;64897;50.816;4.422;2023-05-07T00:54:25;6.70;;;3.78;;
76152;SDS011;64897;50.816;4.422;2023-05-07T00:57:12;8.98;;;5.15;;
76152;SDS011;64897;50.816;4.422;2023-05-07T01:00:00;9.10;;;4.40;;
76152;SDS011;64897;50.816;4.422;2023-05-07T01:02:48;9.02;;;4.18;;
76152;SDS011;64897;50.816;4.422;2023-05-07T01:05:34;6.65;;;4.28;;
76152;SDS011;64897;50.816;4.422;2023-05-07T01:08:22;9.73;;;4.30;;
76152;SDS011;64897;50.816;4.422;2023-05-07T01:11:12;8.23;;;4.20;;
76152;SDS011;64897;50.816;4.422;2023-05-07T01:13:59;6.40;;;3.97;;
76152;SDS011;64897;50.816;4.422;2023-05-07T01:16:47;6.25;;;3.88;;
76152;SDS011;64897;50.816;4.422;2023-05-07T01:19:36;7.80;;;4.40;;
76152;SDS011;64897;50.816;4.422;2023-05-07T01:22:28;8.02;;;4.25;;
76152;SDS011;64897;50.816;4.422;2023-05-07T01:25:16;8.40;;;4.65;;
76152;SDS011;64897;50.816;4.422;2023-05-07T01:28:07;8.73;;;5.25;;
76152;SDS011;64897;50.816;4.422;2023-05-07T01:30:58;9.98;;;5.30;;
76152;SDS011;64897;50.816;4.422;2023-05-07T01:33:47;8.07;;;4.82;;
76152;SDS011;64897;50.816;4.422;2023-05-07T01:36:37;9.10;;;4.55;;
76152;SDS011;64897;50.816;4.422;2023-05-07T01:39:27;11.10;;;4.45;;
76152;SDS011;64897;50.816;4.422;2023-05-07T01:42:14;9.57;;;4.60;;
76152;SDS011;64897;50.816;4.422;2023-05-07T01:45:01;9.93;;;4.47;;
76152;SDS011;64897;50.816;4.422;2023-05-07T01:47:49;7.18;;;4.50;;
76152;SDS011;64897;50.816;4.422;2023-05-07T01:50:37;8.65;;;4.78;;
76152;SDS011;64897;50.816;4.422;2023-05-07T01:53:26;9.00;;;4.85;;
76152;SDS011;64897;50.816;4.422;2023-05-07T01:56:15;7.43;;;4.43;;
76152;SDS011;64897;50.816;4.422;2023-05-07T01:59:02;8.23;;;4.18;;
76152;SDS011;64897;50.816;4.422;2023-05-07T02:01:49;9.13;;;4.20;;
76152;SDS011;64897;50.816;4.422;2023-05-07T02:04:36;6.45;;;4.03;;
76152;SDS011;64897;50.816;4.422;2023-05-07T02:07:23;10.25;;;4.10;;
76152;SDS011;64897;50.816;4.422;2023-05-07T02:10:10;8.32;;;3.88;;
76152;SDS011;64897;50.816;4.422;2023-05-07T02:12:59;6.55;;;4.60;;
76152;SDS011;64897;50.816;4.422;2023-05-07T02:15:46;8.80;;;4.10;;
76152;SDS011;64897;50.816;4.422;2023-05-07T02:18:35;10.05;;;5.25;;
76152;SDS011;64897;50.816;4.422;2023-05-07T02:21:22;8.70;;;4.63;;
76152;SDS011;64897;50.816;4.422;2023-05-07T02:24:09;11.32;;;4.30;;
76152;SDS011;64897;50.816;4.422;2023-05-07T02:26:56;9.98;;;4.72;;
76152;SDS011;64897;50.816;4.422;2023-05-07T02:29:44;8.50;;;4.65;;
76152;SDS011;64897;50.816;4.422;2023-05-07T02:32:31;9.18;;;4.22;;
76152;SDS011;64897;50.816;4.422;2023-05-07T02:35:18;8.05;;;3.97;;
76152;SDS011;64897;50.816;4.422;2023-05-07T02:38:05;8.00;;;4.32;;
76152;SDS011;64897;50.816;4.422;2023-05-07T02:40:53;9.95;;;5.05;;
76152;SDS011;64897;50.816;4.422;2023-05-07T02:43:40;7.88;;;4.65;;
76152;SDS011;64897;50.816;4.422;2023-05-07T02:46:29;5.47;;;4.32;;
76152;SDS011;64897;50.816;4.422;2023-05-07T02:49:23;6.68;;;5.07;;
76152;SDS011;64897;50.816;4.422;2023-05-07T02:52:10;9.75;;;4.82;;
76152;SDS011;64897;50.816;4.422;2023-05-07T02:54:57;8.70;;;4.55;;
76152;SDS011;64897;50.816;4.422;2023-05-07T02:57:43;5.90;;;4.38;;
76152;SDS011;64897;50.816;4.422;2023-05-07T03:00:30;8.40;;;4.80;;
76152;SDS011;64897;50.816;4.422;2023-05-07T03:03:48;8.07;;;4.28;;
76152;SDS011;64897;50.816;4.422;2023-05-07T03:06:35;8.48;;;4.43;;
76152;SDS011;64897;50.816;4.422;2023-05-07T03:09:22;9.02;;;4.20;;
76152;SDS011;64897;50.816;4.422;2023-05-07T03:12:09;9.20;;;3.80;;
76152;SDS011;64897;50.816;4.422;2023-05-07T03:14:55;9.10;;;4.53;;
76152;SDS011;64897;50.816;4.422;2023-05-07T03:17:42;11.32;;;4.55;;
76152;SDS011;64897;50.816;4.422;2023-05-07T03:20:31;8.98;;;4.70;;
76152;SDS011;64897;50.816;4.422;2023-05-07T03:23:18;11.25;;;4.47;;
76152;SDS011;64897;50.816;4.422;2023-05-07T03:26:04;9.32;;;4.47;;
76152;SDS011;64897;50.816;4.422;2023-05-07T03:28:51;7.75;;;4.53;;
76152;SDS011;64897;50.816;4.422;2023-05-07T03:31:38;7.20;;;5.00;;
76152;SDS011;64897;50.816;4.422;2023-05-07T03:34:24;11.70;;;4.55;;
76152;SDS011;64897;50.816;4.422;2023-05-07T03:37:13;9.45;;;4.60;;
76152;SDS011;64897;50.816;4.422;2023-05-07T03:40:00;7.03;;;5.20;;
76152;SDS011;64897;50.816;4.422;2023-05-07T03:42:51;8.32;;;4.22;;
76152;SDS011;64897;50.816;4.422;2023-05-07T03:45:41;6.28;;;4.38;;
76152;SDS011;64897;50.816;4.422;2023-05-07T03:48:33;10.48;;;4.97;;
76152;SDS011;64897;50.816;4.422;2023-05-07T03:51:20;9.60;;;4.90;;
76152;SDS011;64897;50.816;4.422;2023-05-07T03:54:08;7.47;;;5.00;;
76152;SDS011;64897;50.816;4.422;2023-05-07T03:57:00;12.57;;;4.43;;
76152;SDS011;64897;50.816;4.422;2023-05-07T03:59:46;6.45;;;4.07;;
76152;SDS011;64897;50.816;4.422;2023-05-07T04:02:33;11.68;;;4.15;;
76152;SDS011;64897;50.816;4.422;2023-05-07T04:05:22;11.35;;;4.65;;
76152;SDS011;64897;50.816;4.422;2023-05-07T04:08:14;7.95;;;4.63;;
76152;SDS011;64897;50.816;4.422;2023-05-07T04:11:07;11.70;;;5.07;;
76152;SDS011;64897;50.816;4.422;2023-05-07T04:13:55;8.90;;;4.75;;
76152;SDS011;64897;50.816;4.422;2023-05-07T04:16:42;8.20;;;4.75;;
76152;SDS011;64897;50.816;4.422;2023-05-07T04:19:29;7.90;;;4.03;;
76152;SDS011;64897;50.816;4.422;2023-05-07T04:22:18;9.13;;;4.75;;
76152;SDS011;64897;50.816;4.422;2023-05-07T04:25:05;8.13;;;4.53;;
76152;SDS011;64897;50.816;4.422;2023-05-07T04:27:56;6.72;;;4.30;;
76152;SDS011;64897;50.816;4.422;2023-05-07T04:30:45;9.20;;;4.90;;
76152;SDS011;64897;50.816;4.422;2023-05-07T04:33:32;8.68;;;5.05;;
76152;SDS011;64897;50.816;4.422;2023-05-07T04:36:20;10.88;;;5.43;;
76152;SDS011;64897;50.816;4.422;2023-05-07T04:39:16;8.05;;;4.68;;
76152;SDS011;64897;50.816;4.422;2023-05-07T04:42:05;7.45;;;4.57;;
76152;SDS011;64897;50.816;4.422;2023-05-07T04:44:55;14.85;;;4.82;;
76152;SDS011;64897;50.816;4.422;2023-05-07T04:47:43;8.80;;;4.38;;
76152;SDS011;64897;50.816;4.422;2023-05-07T04:50:29;12.75;;;4.22;;
76152;SDS011;64897;50.816;4.422;2023-05-07T04:53:19;9.95;;;4.68;;
76152;SDS011;64897;50.816;4.422;2023-05-07T04:56:08;8.52;;;4.72;;
76152;SDS011;64897;50.816;4.422;2023-05-07T04:58:59;9.85;;;4.75;;
76152;SDS011;64897;50.816;4.422;2023-05-07T05:01:48;9.85;;;5.00;;
76152;SDS011;64897;50.816;4.422;2023-05-07T05:04:36;6.40;;;4.93;;
76152;SDS011;64897;50.816;4.422;2023-05-07T05:07:23;5.93;;;4.70;;
76152;SDS011;64897;50.816;4.422;2023-05-07T05:10:10;7.85;;;5.13;;
76152;SDS011;64897;50.816;4.422;2023-05-07T05:12:59;9.30;;;4.55;;
76152;SDS011;64897;50.816;4.422;2023-05-07T05:15:46;5.80;;;4.28;;
76152;SDS011;64897;50.816;4.422;2023-05-07T05:18:35;9.90;;;5.47;;
76152;SDS011;64897;50.816;4.422;2023-05-07T05:24:14;5.80;;;4.53;;
76152;SDS011;64897;50.816;4.422;2023-05-07T05:27:01;11.32;;;4.43;;
76152;SDS011;64897;50.816;4.422;2023-05-07T05:29:49;8.13;;;4.38;;
76152;SDS011;64897;50.816;4.422;2023-05-07T05:32:37;8.52;;;4.65;;
76152;SDS011;64897;50.816;4.422;2023-05-07T05:35:26;6.95;;;4.13;;
76152;SDS011;64897;50.816;4.422;2023-05-07T05:38:14;5.95;;;4.30;;
76152;SDS011;64897;50.816;4.422;2023-05-07T05:41:01;7.50;;;4.43;;
76152;SDS011;64897;50.816;4.422;2023-05-07T05:43:48;7.63;;;3.83;;
76152;SDS011;64897;50.816;4.422;2023-05-07T05:46:36;7.03;;;4.22;;
76152;SDS011;64897;50.816;4.422;2023-05-07T05:49:24;6.57;;;3.92;;
76152;SDS011;64897;50.816;4.422;2023-05-07T05:52:13;8.20;;;4.60;;
76152;SDS011;64897;50.816;4.422;2023-05-07T05:55:01;6.72;;;3.75;;
76152;SDS011;64897;50.816;4.422;2023-05-07T05:57:48;9.63;;;4.13;;
76152;SDS011;64897;50.816;4.422;2023-05-07T06:00:36;6.70;;;4.55;;
76152;SDS011;64897;50.816;4.422;2023-05-07T06:03:24;10.40;;;4.90;;
76152;SDS011;64897;50.816;4.422;2023-05-07T06:06:12;8.75;;;3.92;;
76152;SDS011;64897;50.816;4.422;2023-05-07T06:09:02;9.43;;;5.03;;
76152;SDS011;64897;50.816;4.422;2023-05-07T06:11:55;9.98;;;4.45;;
76152;SDS011;64897;50.816;4.422;2023-05-07T06:14:43;8.07;;;3.83;;
76152;SDS011;64897;50.816;4.422;2023-05-07T06:17:30;9.73;;;4.22;;
76152;SDS011;64897;50.816;4.422;2023-05-07T06:20:17;9.32;;;4.20;;
76152;SDS011;64897;50.816;4.422;2023-05-07T06:23:05;10.90;;;4.47;;
76152;SDS011;64897;50.816;4.422;2023-05-07T06:25:54;9.95;;;4.32;;
76152;SDS011;64897;50.816;4.422;2023-05-07T06:28:46;11.77;;;4.80;;
76152;SDS011;64897;50.816;4.422;2023-05-07T06:31:34;11.32;;;4.43;;
76152;SDS011;64897;50.816;4.422;2023-05-07T06:34:25;7.95;;;4.57;;
76152;SDS011;64897;50.816;4.422;2023-05-07T06:37:12;8.02;;;4.40;;
76152;SDS011;64897;50.816;4.422;2023-05-07T06:40:24;8.77;;;5.50;;
76152;SDS011;64897;50.816;4.422;2023-05-07T06:43:12;14.50;;;4.72;;
76152;SDS011;64897;50.816;4.422;2023-05-07T06:46:06;10.05;;;5.20;;
76152;SDS011;64897;50.816;4.422;2023-05-07T06:48:53;12.63;;;5.53;;
76152;SDS011;64897;50.816;4.422;2023-05-07T06:51:41;8.18;;;5.63;;
76152;SDS011;64897;50.816;4.422;2023-05-07T06:54:28;9.98;;;4.68;;
76152;SDS011;64897;50.816;4.422;2023-05-07T06:57:16;9.95;;;4.72;;
76152;SDS011;64897;50.816;4.422;2023-05-07T07:00:05;8.68;;;5.40;;
76152;SDS011;64897;50.816;4.422;2023-05-07T07:03:02;13.73;;;5.70;;
76152;SDS011;64897;50.816;4.422;2023-05-07T07:05:51;10.90;;;6.10;;
76152;SDS011;64897;50.816;4.422;2023-05-07T07:08:38;11.32;;;6.50;;
76152;SDS011;64897;50.816;4.422;2023-05-07T07:11:26;13.18;;;6.07;;
76152;SDS011;64897;50.816;4.422;2023-05-07T07:14:13;14.35;;;6.10;;
76152;SDS011;64897;50.816;4.422;2023-05-07T07:17:06;9.13;;;6.03;;
76152;SDS011;64897;50.816;4.422;2023-05-07T07:19:53;11.50;;;6.38;;
76152;SDS011;64897;50.816;4.422;2023-05-07T07:22:40;11.27;;;7.13;;
76152;SDS011;64897;50.816;4.422;2023-05-07T07:25:27;11.88;;;6.90;;
76152;SDS011;64897;50.816;4.422;2023-05-07T07:28:14;13.70;;;7.05;;
76152;SDS011;64897;50.816;4.422;2023-05-07T07:31:02;10.77;;;7.10;;
76152;SDS011;64897;50.816;4.422;2023-05-07T07:33:50;12.35;;;7.18;;
76152;SDS011;64897;50.816;4.422;2023-05-07T07:36:38;10.98;;;6.65;;
76152;SDS011;64897;50.816;4.422;2023-05-07T07:39:25;11.45;;;7.05;;
76152;SDS011;64897;50.816;4.422;2023-05-07T07:42:14;11.80;;;7.57;;
76152;SDS011;64897;50.816;4.422;2023-05-07T07:45:01;11.57;;;6.40;;
76152;SDS011;64897;50.816;4.422;2023-05-07T07:47:52;12.82;;;6.85;;
76152;SDS011;64897;50.816;4.422;2023-05-07T07:50:41;9.95;;;6.53;;
76152;SDS011;64897;50.816;4.422;2023-05-07T07:53:28;14.85;;;6.88;;
76152;SDS011;64897;50.816;4.422;2023-05-07T07:56:15;16.02;;;6.60;;
76152;SDS011;64897;50.816;4.422;2023-05-07T07:59:02;10.75;;;6.13;;
76152;SDS011;64897;50.816;4.422;2023-05-07T08:01:50;14.52;;;7.15;;
76152;SDS011;64897;50.816;4.422;2023-05-07T08:04:40;18.67;;;7.85;;
76152;SDS011;64897;50.816;4.422;2023-05-07T08:07:29;19.58;;;8.50;;
76152;SDS011;64897;50.816;4.422;2023-05-07T08:10:16;11.63;;;7.10;;
76152;SDS011;64897;50.816;4.422;2023-05-07T08:13:06;13.38;;;7.85;;
76152;SDS011;64897;50.816;4.422;2023-05-07T08:15:56;12.40;;;7.55;;
76152;SDS011;64897;50.816;4.422;2023-05-07T08:18:43;11.60;;;7.72;;
76152;SDS011;64897;50.816;4.422;2023-05-07T08:21:30;15.25;;;7.80;;
76152;SDS011;64897;50.816;4.422;2023-05-07T08:24:19;14.00;;;6.03;;
76152;SDS011;64897;50.816;4.422;2023-05-07T08:27:06;10.55;;;6.18;;
76152;SDS011;64897;50.816;4.422;2023-05-07T08:29:53;14.52;;;7.10;;
76152;SDS011;64897;50.816;4.422;2023-05-07T08:32:40;12.05;;;6.63;;
76152;SDS011;64897;50.816;4.422;2023-05-07T08:35:27;13.60;;;6.53;;
76152;SDS011;64897;50.816;4.422;2023-05-07T08:38:14;12.93;;;6.82;;
76152;SDS011;64897;50.816;4.422;2023-05-07T08:41:02;12.82;;;6.15;;
76152;SDS011;64897;50.816;4.422;2023-05-07T08:43:51;8.30;;;5.78;;
76152;SDS011;64897;50.816;4.422;2023-05-07T08:46:42;10.88;;;5.68;;
76152;SDS011;64897;50.816;4.422;2023-05-07T08:49:33;12.20;;;5.95;;
76152;SDS011;64897;50.816;4.422;2023-05-07T08:52:21;8.93;;;6.00;;
76152;SDS011;64897;50.816;4.422;2023-05-07T08:55:09;10.13;;;5.93;;
76152;SDS011;64897;50.816;4.422;2023-05-07T08:57:57;10.00;;;5.70;;
76152;SDS011;64897;50.816;4.422;2023-05-07T09:00:44;8.35;;;5.78;;
76152;SDS011;64897;50.816;4.422;2023-05-07T09:03:33;12.70;;;6.40;;
76152;SDS011;64897;50.816;4.422;2023-05-07T09:06:20;10.80;;;6.93;;
76152;SDS011;64897;50.816;4.422;2023-05-07T09:09:07;8.18;;;6.85;;
76152;SDS011;64897;50.816;4.422;2023-05-07T09:11:56;7.90;;;5.72;;
76152;SDS011;64897;50.816;4.422;2023-05-07T09:14:47;10.73;;;5.63;;
76152;SDS011;64897;50.816;4.422;2023-05-07T09:17:34;12.43;;;6.80;;
76152;SDS011;64897;50.816;4.422;2023-05-07T09:20:21;10.13;;;5.30;;
76152;SDS011;64897;50.816;4.422;2023-05-07T09:23:08;9.48;;;6.32;;
76152;SDS011;64897;50.816;4.422;2023-05-07T09:25:55;11.98;;;6.07;;
76152;SDS011;64897;50.816;4.422;2023-05-07T09:28:49;10.93;;;6.25;;
76152;SDS011;64897;50.816;4.422;2023-05-07T09:31:39;10.80;;;5.88;;
76152;SDS011;64897;50.816;4.422;2023-05-07T09:34:28;8.60;;;5.28;;
76152;SDS011;64897;50.816;4.422;2023-05-07T09:37:15;11.48;;;6.57;;
76152;SDS011;64897;50.816;4.422;2023-05-07T09:40:03;9.65;;;6.43;;
76152;SDS011;64897;50.816;4.422;2023-05-07T09:42:51;10.18;;;6.45;;
76152;SDS011;64897;50.816;4.422;2023-05-07T09:45:41;7.15;;;5.15;;
76152;SDS011;64897;50.816;4.422;2023-05-07T09:48:32;10.73;;;5.57;;
76152;SDS011;64897;50.816;4.422;2023-05-07T09:51:24;11.60;;;6.25;;
76152;SDS011;64897;50.816;4.422;2023-05-07T09:54:17;12.38;;;5.22;;
76152;SDS011;64897;50.816;4.422;2023-05-07T09:57:07;11.07;;;5.10;;
76152;SDS011;64897;50.816;4.422;2023-05-07T09:59:59;6.93;;;4.03;;
76152;SDS011;64897;50.816;4.422;2023-05-07T10:02:54;10.20;;;5.60;;
76152;SDS011;64897;50.816;4.422;2023-05-07T10:05:54;10.05;;;4.57;;
76152;SDS011;64897;50.816;4.422;2023-05-07T10:08:42;9.15;;;4.32;;
76152;SDS011;64897;50.816;4.422;2023-05-07T10:11:29;7.22;;;5.28;;
76152;SDS011;64897;50.816;4.422;2023-05-07T10:14:19;8.88;;;4.80;;
76152;SDS011;64897;50.816;4.422;2023-05-07T10:17:06;9.18;;;4.70;;
76152;SDS011;64897;50.816;4.422;2023-05-07T10:19:56;7.65;;;5.13;;
76152;SDS011;64897;50.816;4.422;2023-05-07T10:22:45;10.15;;;5.20;;
76152;SDS011;64897;50.816;4.422;2023-05-07T10:30:22;6.57;;;4.05;;
76152;SDS011;64897;50.816;4.422;2023-05-07T10:34:24;8.10;;;4.85;;
76152;SDS011;64897;50.816;4.422;2023-05-07T10:37:15;8.02;;;4.50;;
76152;SDS011;64897;50.816;4.422;2023-05-07T10:40:06;8.27;;;4.35;;
76152;SDS011;64897;50.816;4.422;2023-05-07T10:42:56;8.65;;;4.28;;
76152;SDS011;64897;50.816;4.422;2023-05-07T10:46:55;8.38;;;5.10;;
76152;SDS011;64897;50.816;4.422;2023-05-07T10:50:51;10.52;;;4.82;;
76152;SDS011;64897;50.816;4.422;2023-05-07T10:54:19;6.72;;;4.63;;
76152;SDS011;64897;50.816;4.422;2023-05-07T10:57:33;8.18;;;4.53;;
76152;SDS011;64897;50.816;4.422;2023-05-07T11:00:41;8.32;;;4.68;;
76152;SDS011;64897;50.816;4.422;2023-05-07T11:03:35;10.25;;;4.55;;
76152;SDS011;64897;50.816;4.422;2023-05-07T11:06:43;5.00;;;3.90;;
76152;SDS011;64897;50.816;4.422;2023-05-07T11:10:39;5.22;;;4.18;;
76152;SDS011;64897;50.816;4.422;2023-05-07T11:13:42;6.43;;;4.30;;
76152;SDS011;64897;50.816;4.422;2023-05-07T11:16:37;7.68;;;4.63;;
76152;SDS011;64897;50.816;4.422;2023-05-07T11:19:47;7.78;;;4.35;;
76152;SDS011;64897;50.816;4.422;2023-05-07T11:22:39;5.43;;;3.75;;
76152;SDS011;64897;50.816;4.422;2023-05-07T11:25:48;5.75;;;3.95;;
76152;SDS011;64897;50.816;4.422;2023-05-07T11:28:40;5.95;;;3.83;;
76152;SDS011;64897;50.816;4.422;2023-05-07T11:31:29;7.22;;;3.65;;
76152;SDS011;64897;50.816;4.422;2023-05-07T11:34:22;4.68;;;2.90;;
76152;SDS011;64897;50.816;4.422;2023-05-07T11:37:11;7.72;;;4.30;;
76152;SDS011;64897;50.816;4.422;2023-05-07T11:40:18;6.20;;;3.72;;
76152;SDS011;64897;50.816;4.422;2023-05-07T11:43:10;7.28;;;3.83;;
76152;SDS011;64897;50.816;4.422;2023-05-07T11:46:04;5.63;;;3.72;;
76152;SDS011;64897;50.816;4.422;2023-05-07T11:48:54;5.80;;;3.95;;
76152;SDS011;64897;50.816;4.422;2023-05-07T11:51:41;7.80;;;3.70;;
76152;SDS011;64897;50.816;4.422;2023-05-07T11:54:34;5.43;;;3.53;;
76152;SDS011;64897;50.816;4.422;2023-05-07T11:57:23;5.40;;;3.97;;
76152;SDS011;64897;50.816;4.422;2023-05-07T12:00:15;5.45;;;2.92;;
76152;SDS011;64897;50.816;4.422;2023-05-07T12:03:03;5.82;;;4.10;;
76152;SDS011;64897;50.816;4.422;2023-05-07T12:05:50;8.07;;;4.05;;
76152;SDS011;64897;50.816;4.422;2023-05-07T12:08:38;5.93;;;3.47;;
76152;SDS011;64897;50.816;4.422;2023-05-07T12:11:29;4.40;;;3.42;;
76152;SDS011;64897;50.816;4.422;2023-05-07T12:14:17;6.95;;;3.92;;
76152;SDS011;64897;50.816;4.422;2023-05-07T12:17:05;4.22;;;3.28;;
76152;SDS011;64897;50.816;4.422;2023-05-07T12:19:53;8.73;;;3.90;;
76152;SDS011;64897;50.816;4.422;2023-05-07T12:22:40;6.50;;;4.13;;
76152;SDS011;64897;50.816;4.422;2023-05-07T12:25:29;8.35;;;4.00;;
76152;SDS011;64897;50.816;4.422;2023-05-07T12:28:17;7.00;;;4.07;;
76152;SDS011;64897;50.816;4.422;2023-05-07T12:31:06;5.97;;;4.90;;
76152;SDS011;64897;50.816;4.422;2023-05-07T12:33:53;6.47;;;5.22;;
76152;SDS011;64897;50.816;4.422;2023-05-07T12:36:40;8.52;;;4.50;;
76152;SDS011;64897;50.816;4.422;2023-05-07T12:39:27;7.85;;;4.07;;
76152;SDS011;64897;50.816;4.422;2023-05-07T12:42:14;8.20;;;4.25;;
76152;SDS011;64897;50.816;4.422;2023-05-07T12:45:07;5.00;;;4.45;;
76152;SDS011;64897;50.816;4.422;2023-05-07T12:47:57;6.00;;;3.85;;
76152;SDS011;64897;50.816;4.422;2023-05-07T12:50:49;8.65;;;3.92;;
76152;SDS011;64897;50.816;4.422;2023-05-07T12:53:39;6.35;;;3.80;;
76152;SDS011;64897;50.816;4.422;2023-05-07T12:56:30;9.50;;;4.80;;
76152;SDS011;64897;50.816;4.422;2023-05-07T12:59:17;6.82;;;4.72;;
76152;SDS011;64897;50.816;4.422;2023-05-07T13:02:04;9.35;;;4.22;;
76152;SDS011;64897;50.816;4.422;2023-05-07T13:04:54;6.00;;;4.05;;
76152;SDS011;64897;50.816;4.422;2023-05-07T13:07:41;7.07;;;4.00;;
76152;SDS011;64897;50.816;4.422;2023-05-07T13:10:39;7.18;;;4.85;;
76152;SDS011;64897;50.816;4.422;2023-05-07T13:13:25;7.32;;;5.35;;
76152;SDS011;64897;50.816;4.422;2023-05-07T13:16:13;7.63;;;5.80;;
76152;SDS011;64897;50.816;4.422;2023-05-07T13:19:00;9.60;;;7.13;;
76152;SDS011;64897;50.816;4.422;2023-05-07T13:21:48;9.63;;;6.63;;
76152;SDS011;64897;50.816;4.422;2023-05-07T13:24:35;9.23;;;6.22;;
76152;SDS011;64897;50.816;4.422;2023-05-07T13:27:22;9.80;;;5.90;;
76152;SDS011;64897;50.816;4.422;2023-05-07T13:30:09;9.30;;;7.28;;
76152;SDS011;64897;50.816;4.422;2023-05-07T13:32:56;10.70;;;7.97;;
76152;SDS011;64897;50.816;4.422;2023-05-07T13:35:42;11.73;;;8.52;;
76152;SDS011;64897;50.816;4.422;2023-05-07T13:38:31;12.07;;;8.35;;
76152;SDS011;64897;50.816;4.422;2023-05-07T13:41:18;10.93;;;8.50;;
76152;SDS011;64897;50.816;4.422;2023-05-07T13:44:06;13.48;;;8.95;;
76152;SDS011;64897;50.816;4.422;2023-05-07T13:46:53;11.45;;;8.60;;
76152;SDS011;64897;50.816;4.422;2023-05-07T13:49:40;11.55;;;8.98;;
76152;SDS011;64897;50.816;4.422;2023-05-07T13:52:27;13.45;;;9.32;;
76152;SDS011;64897;50.816;4.422;2023-05-07T13:55:15;11.43;;;9.18;;
76152;SDS011;64897;50.816;4.422;2023-05-07T13:58:02;12.38;;;9.90;;
76152;SDS011;64897;50.816;4.422;2023-05-07T14:00:49;12.68;;;9.25;;
76152;SDS011;64897;50.816;4.422;2023-05-07T14:03:38;12.23;;;10.43;;
76152;SDS011;64897;50.816;4.422;2023-05-07T14:06:25;14.43;;;9.82;;
76152;SDS011;64897;50.816;4.422;2023-05-07T14:09:12;14.10;;;10.20;;
76152;SDS011;64897;50.816;4.422;2023-05-07T14:12:01;12.88;;;9.95;;
76152;SDS011;64897;50.816;4.422;2023-05-07T14:14:48;12.73;;;10.25;;
76152;SDS011;64897;50.816;4.422;2023-05-07T14:17:35;11.98;;;9.82;;
76152;SDS011;64897;50.816;4.422;2023-05-07T14:20:22;13.10;;;10.00;;
76152;SDS011;64897;50.816;4.422;2023-05-07T14:23:09;15.07;;;10.30;;
76152;SDS011;64897;50.816;4.422;2023-05-07T14:25:55;14.10;;;10.60;;
76152;SDS011;64897;50.816;4.422;2023-05-07T14:28:43;14.38;;;11.02;;
76152;SDS011;64897;50.816;4.422;2023-05-07T14:31:31;15.80;;;10.68;;
76152;SDS011;64897;50.816;4.422;2023-05-07T14:34:18;18.80;;;11.35;;
76152;SDS011;64897;50.816;4.422;2023-05-07T14:37:05;14.63;;;10.85;;
76152;SDS011;64897;50.816;4.422;2023-05-07T14:39:52;15.20;;;10.68;;
76152;SDS011;64897;50.816;4.422;2023-05-07T14:42:39;14.77;;;11.35;;
76152;SDS011;64897;50.816;4.422;2023-05-07T14:45:27;14.68;;;10.70;;
76152;SDS011;64897;50.816;4.422;2023-05-07T14:48:14;14.25;;;10.82;;
76152;SDS011;64897;50.816;4.422;2023-05-07T14:51:01;14.80;;;10.48;;
76152;SDS011;64897;50.816;4.422;2023-05-07T14:53:48;12.95;;;9.82;;
76152;SDS011;64897;50.816;4.422;2023-05-07T14:56:36;13.63;;;9.63;;
76152;SDS011;64897;50.816;4.422;2023-05-07T14:59:23;14.30;;;10.35;;
76152;SDS011;64897;50.816;4.422;2023-05-07T15:02:12;12.52;;;9.43;;
76152;SDS011;64897;50.816;4.422;2023-05-07T15:04:59;12.65;;;9.50;;
76152;SDS011;64897;50.816;4.422;2023-05-07T15:07:46;12.70;;;9.98;;
76152;SDS011;64897;50.816;4.422;2023-05-07T15:10:34;13.10;;;9.57;;
76152;SDS011;64897;50.816;4.422;2023-05-07T15:13:25;12.95;;;8.90;;
76152;SDS011;64897;50.816;4.422;2023-05-07T15:16:12;15.55;;;9.57;;
76152;SDS011;64897;50.816;4.422;2023-05-07T15:19:00;13.02;;;9.23;;
76152;SDS011;64897;50.816;4.422;2023-05-07T15:21:47;12.02;;;9.50;;
76152;SDS011;64897;50.816;4.422;2023-05-07T15:24:34;11.32;;;9.18;;
76152;SDS011;64897;50.816;4.422;2023-05-07T15:27:21;13.85;;;10.30;;
76152;SDS011;64897;50.816;4.422;2023-05-07T15:30:08;14.55;;;11.60;;
76152;SDS011;64897;50.816;4.422;2023-05-07T20:01:51;31.17;;;4.80;;
76152;SDS011;64897;50.816;4.422;2023-05-07T20:04:38;25.10;;;5.20;;
76152;SDS011;64897;50.816;4.422;2023-05-07T20:07:28;30.33;;;4.88;;
76152;SDS011;64897;50.816;4.422;2023-05-07T20:10:18;28.02;;;3.40;;
76152;SDS011;64897;50.816;4.422;2023-05-07T20:13:05;17.35;;;4.00;;
76152;SDS011;64897;50.816;4.422;2023-05-07T20:15:55;37.47;;;4.43;;
76152;SDS011;64897;50.816;4.422;2023-05-07T20:18:45;26.10;;;5.72;;
76152;SDS011;64897;50.816;4.422;2023-05-07T20:21:32;33.42;;;6.30;;
76152;SDS011;64897;50.816;4.422;2023-05-07T20:24:20;25.27;;;4.85;;
76152;SDS011;64897;50.816;4.422;2023-05-07T20:27:12;28.00;;;5.03;;
76152;SDS011;64897;50.816;4.422;2023-05-07T20:30:08;39.50;;;5.38;;
76152;SDS011;64897;50.816;4.422;2023-05-07T20:32:57;27.73;;;5.30;;
76152;SDS011;64897;50.816;4.422;2023-05-07T20:35:45;31.70;;;5.38;;
76152;SDS011;64897;50.816;4.422;2023-05-07T20:38:33;28.88;;;4.72;;
76152;SDS011;64897;50.816;4.422;2023-05-07T20:41:20;32.83;;;5.38;;
76152;SDS011;64897;50.816;4.422;2023-05-07T20:44:09;26.75;;;5.00;;
76152;SDS011;64897;50.816;4.422;2023-05-07T20:46:56;33.88;;;4.72;;
76152;SDS011;64897;50.816;4.422;2023-05-07T20:49:47;25.25;;;3.78;;
76152;SDS011;64897;50.816;4.422;2023-05-07T20:52:37;22.50;;;3.75;;
76152;SDS011;64897;50.816;4.422;2023-05-07T20:55:25;20.80;;;3.92;;
76152;SDS011;64897;50.816;4.422;2023-05-07T20:58:13;15.63;;;3.72;;
76152;SDS011;64897;50.816;4.422;2023-05-07T21:01:00;23.15;;;4.20;;
76152;SDS011;64897;50.816;4.422;2023-05-07T21:03:49;29.83;;;4.35;;
76152;SDS011;64897;50.816;4.422;2023-05-07T21:06:37;33.95;;;5.63;;
76152;SDS011;64897;50.816;4.422;2023-05-07T21:09:26;30.63;;;4.10;;
76152;SDS011;64897;50.816;4.422;2023-05-07T21:12:13;29.45;;;3.63;;
76152;SDS011;64897;50.816;4.422;2023-05-07T21:15:03;20.95;;;4.45;;
76152;SDS011;64897;50.816;4.422;2023-05-07T21:17:50;27.10;;;3.72;;
76152;SDS011;64897;50.816;4.422;2023-05-07T21:20:38;38.58;;;5.30;;
76152;SDS011;64897;50.816;4.422;2023-05-07T21:23:26;26.27;;;4.97;;
76152;SDS011;64897;50.816;4.422;2023-05-07T21:26:17;31.73;;;6.40;;
76152;SDS011;64897;50.816;4.422;2023-05-07T21:29:05;23.55;;;5.38;;
76152;SDS011;64897;50.816;4.422;2023-05-07T21:31:52;23.52;;;5.05;;